Pike Peak HPC :: Oakley, KS

liberation: 2021-10-09  06:45     latitude: 39.107200     longitude: -100.848917 43 birds
# LOFT PRING MILES ARRIVAL SPEED ToWin
1 YORDAN MEDINA AU21-PPH-1708 211.293 2021-10-09 12:59:05.463 994.078 00:00:00
2 FRANK LOPEZ AU21-PPH-1434 212.112 2021-10-09 13:00:37.598 993.851 00:00:05
3 RODOLFO DIAZ AU21-PUEB-21107 208.166 2021-10-09 12:56:14.392 986.888 00:02:41
4 YORDAN MEDINA AU21-PPH-1753 211.293 2021-10-09 13:01:52.338 986.742 00:02:47
5 YORDAN MEDINA AU21-PPH-1561 211.293 2021-10-09 13:19:48.998 941.895 00:20:44
6 YORDAN MEDINA AU21-PPH-1119 211.293 2021-10-09 13:31:14.772 915.395 00:32:09
7 RODOLFO DIAZ AU21-PUEB-21142 208.166 2021-10-09 13:27:37.533 909.957 00:34:04
8 RODOLFO DIAZ AU21-PUEB-21140 208.166 2021-10-09 13:50:04.490 861.900 00:56:31
9 YORDAN MEDINA AU21-PPH-1756 211.293 2021-10-09 13:57:58.644 858.881 00:58:53
10 FRANK LOPEZ AU21-PPH-1421 212.112 2021-10-09 14:04:16.148 849.860 01:03:44
11 RODOLFO DIAZ AU21-PUEB-21120 208.166 2021-10-09 14:31:03.009 786.121 01:37:30
12 RODOLFO DIAZ AU21-PUEB-21049 208.166 2021-10-09 14:31:20.959 785.617 01:37:48
13 RODOLFO DIAZ AU21-PUEB-21188 208.166 2021-10-09 14:31:52.953 784.720 01:38:20
14 Xiong Guy's Loft AU21-PPH-1293 207.921 2021-10-09 15:13:28.742 719.676 02:20:22
15 RODOLFO DIAZ AU21-PUEB-21110 208.166 2021-10-09 15:44:57.569 678.518 02:51:24
16 FRANK LOPEZ AU21-FOYS-2519 212.112 2021-10-09 16:58:52.961 608.124 03:58:21
17 FRANK LOPEZ AU21-PPH-1414 212.112 2021-10-09 18:05:42.436 548.425 05:05:10
18 YORDAN MEDINA AU21-PPH-1572 211.293 2021-10-09 18:17:36.722 536.918 05:18:31
19 Xiong Guy's Loft AU21-PPH-1480 207.921 2021-10-09 18:31:54.808 517.659 05:38:48
20 RODOLFO DIAZ AU21-PPH-1560 208.166 2021-10-09 18:38:32.362 513.457 05:44:59
21 RODOLFO DIAZ AU21-PUEB-21174 208.166 2021-10-09 18:51:30.850 509.936 05:49:55
22 YORDAN MEDINA AU21-PPH-1750 211.293 2021-10-10 07:52:24.583 457.782 07:18:15
23 YORDAN MEDINA AU21-PUEB-21194 211.293 2021-10-10 08:13:43.112 446.081 07:39:34
24 FRANK LOPEZ AU21-PPH-1415 212.112 2021-10-10 09:48:09.764 402.240 09:12:33
25 GERARDO CRUZ AU21-FOYS-33424 216.264 2021-10-10 11:27:48.277 370.352 10:44:51
26 GERARDO CRUZ AU21-PPH-1785 216.264 2021-10-10 13:03:58.332 338.663 12:21:01
DWIGHT BAKER AU21-FOYS-2511 0 0000-00-00 00:00:00.000 0.000 00:00:00
DWIGHT BAKER AU21-FOYS-2518 0 0000-00-00 00:00:00.000 0.000 00:00:00
DWIGHT BAKER AU21-FOYS-2523 0 0000-00-00 00:00:00.000 0.000 00:00:00
DWIGHT BAKER AU21-FOYS-2527 0 0000-00-00 00:00:00.000 0.000 00:00:00
DWIGHT BAKER AU21-PPH-1676 0 0000-00-00 00:00:00.000 0.000 00:00:00
GERARDO CRUZ AU21-FOYS-33421 0 0000-00-00 00:00:00.000 0.000 00:00:00
GERARDO CRUZ AU21-FOYS-33422 0 0000-00-00 00:00:00.000 0.000 00:00:00
GERARDO CRUZ AU21-PPH-1780 0 0000-00-00 00:00:00.000 0.000 00:00:00
GERARDO CRUZ AU21-PPH-1784 0 0000-00-00 00:00:00.000 0.000 00:00:00
JIM DYE AU21-PPH-1659 0 0000-00-00 00:00:00.000 0.000 00:00:00
JIM DYE AU21-PPH-1687 0 0000-00-00 00:00:00.000 0.000 00:00:00
RODOLFO DIAZ AU21-PUEB-21114 0 0000-00-00 00:00:00.000 0.000 00:00:00
RODOLFO DIAZ AU21-PUEB-21167 0 0000-00-00 00:00:00.000 0.000 00:00:00
Xiong Guy's Loft AU21-PPH-1474 0 0000-00-00 00:00:00.000 0.000 00:00:00
YORDAN MEDINA AU21-PPH-1722 0 0000-00-00 00:00:00.000 0.000 00:00:00
YORDAN MEDINA AU21-PPH-1746 0 0000-00-00 00:00:00.000 0.000 00:00:00
YORDAN MEDINA AU21-PPH-1754 0 0000-00-00 00:00:00.000 0.000 00:00:00